createdAt,value
2022-11-10T00:00:18.735Z,3.10
2022-11-10T00:01:18.764Z,4.00
2022-11-10T00:02:18.766Z,3.60
2022-11-10T00:03:19.052Z,3.70
2022-11-10T00:04:18.928Z,3.20
2022-11-10T00:05:18.808Z,3.30
2022-11-10T00:06:18.824Z,5.20
2022-11-10T00:07:18.837Z,4.30
2022-11-10T00:08:18.854Z,3.30
2022-11-10T00:09:18.896Z,3.50
2022-11-10T00:10:18.901Z,3.50
2022-11-10T00:11:18.899Z,3.10
2022-11-10T00:12:18.912Z,3.30
2022-11-10T00:13:19.285Z,3.20
2022-11-10T00:14:18.938Z,3.50
2022-11-10T00:15:18.955Z,3.00
2022-11-10T00:16:18.970Z,3.40
2022-11-10T00:17:18.984Z,3.30
2022-11-10T00:18:18.998Z,3.50
2022-11-10T00:19:19.012Z,3.60
2022-11-10T00:20:19.028Z,3.50
2022-11-10T00:21:19.041Z,3.20
2022-11-10T00:22:19.057Z,3.40
2022-11-10T00:23:19.352Z,3.30
2022-11-10T00:24:19.085Z,3.10
2022-11-10T00:25:19.099Z,3.10
2022-11-10T00:26:19.135Z,3.40
2022-11-10T00:27:19.130Z,3.10
2022-11-10T00:28:19.146Z,3.30
2022-11-10T00:29:19.182Z,2.90
2022-11-10T00:30:19.174Z,3.70
2022-11-10T00:31:19.188Z,3.50
2022-11-10T00:32:19.201Z,4.00
2022-11-10T00:33:19.624Z,3.80
2022-11-10T00:34:19.230Z,3.20
2022-11-10T00:35:19.247Z,3.20
2022-11-10T00:36:19.260Z,2.90
2022-11-10T00:37:19.275Z,2.90
2022-11-10T00:38:19.289Z,3.10
2022-11-10T00:39:19.304Z,4.40
2022-11-10T00:40:19.319Z,3.40
2022-11-10T00:41:19.337Z,3.20
2022-11-10T00:42:19.368Z,3.20
2022-11-10T00:43:23.836Z,3.40
2022-11-10T00:44:19.376Z,3.30
2022-11-10T00:45:19.391Z,3.00
2022-11-10T00:46:19.404Z,3.10
2022-11-10T00:47:19.421Z,3.10
2022-11-10T00:48:19.436Z,3.60
2022-11-10T00:49:19.448Z,3.30
2022-11-10T00:50:19.461Z,4.40
2022-11-10T00:51:19.477Z,3.90
2022-11-10T00:52:19.492Z,3.20
2022-11-10T00:53:20.003Z,3.40
2022-11-10T00:54:19.520Z,3.20
2022-11-10T00:55:19.535Z,4.10
2022-11-10T00:56:19.548Z,3.50
2022-11-10T00:57:19.565Z,3.40
2022-11-10T00:58:19.598Z,3.70
2022-11-10T00:59:19.593Z,4.00
2022-11-10T01:00:19.607Z,3.70
2022-11-10T01:01:19.708Z,3.90
2022-11-10T01:02:19.637Z,4.60
2022-11-10T01:03:19.985Z,3.80
2022-11-10T01:04:19.664Z,4.10
2022-11-10T01:05:19.681Z,3.70
2022-11-10T01:06:19.695Z,4.10
2022-11-10T01:07:19.709Z,4.50
2022-11-10T01:08:19.723Z,4.50
2022-11-10T01:09:19.738Z,4.90
2022-11-10T01:10:19.751Z,4.90
2022-11-10T01:11:19.766Z,5.30
2022-11-10T01:12:19.781Z,4.60
2022-11-10T01:13:20.159Z,4.80
2022-11-10T01:14:19.829Z,4.30
2022-11-10T01:15:23.067Z,6.10
2022-11-10T01:16:19.840Z,5.80
2022-11-10T01:17:19.854Z,5.00
2022-11-10T01:18:19.868Z,5.30
2022-11-10T01:19:19.882Z,5.00
2022-11-10T01:20:19.898Z,5.50
2022-11-10T01:21:19.911Z,5.70
2022-11-10T01:22:19.925Z,5.70
2022-11-10T01:23:20.490Z,4.50
2022-11-10T01:24:19.962Z,5.50
2022-11-10T01:25:19.970Z,6.30
2022-11-10T01:26:19.982Z,6.60
2022-11-10T01:27:19.997Z,6.00
2022-11-10T01:28:20.012Z,5.30
2022-11-10T01:29:20.036Z,5.70
2022-11-10T01:30:20.070Z,4.90
2022-11-10T01:31:20.055Z,5.00
2022-11-10T01:32:20.068Z,4.90
2022-11-10T01:33:20.525Z,5.10
2022-11-10T01:34:20.099Z,5.00
2022-11-10T01:35:20.112Z,5.30
2022-11-10T01:36:20.127Z,5.90
2022-11-10T01:37:20.141Z,5.40
2022-11-10T01:38:20.153Z,7.50
2022-11-10T01:39:20.169Z,5.90
2022-11-10T01:40:20.223Z,6.30
2022-11-10T01:41:20.198Z,5.60
2022-11-10T01:42:20.213Z,5.80
2022-11-10T01:43:20.648Z,5.70
2022-11-10T01:44:20.240Z,5.60
2022-11-10T01:45:20.256Z,4.90
2022-11-10T01:46:20.286Z,5.60
2022-11-10T01:47:20.285Z,5.00
2022-11-10T01:48:20.298Z,4.90
2022-11-10T01:49:20.312Z,5.00
2022-11-10T01:50:20.330Z,5.30
2022-11-10T01:51:20.343Z,6.00
2022-11-10T01:52:20.358Z,4.80
2022-11-10T01:53:20.819Z,5.10
2022-11-10T01:54:20.384Z,6.10
2022-11-10T01:55:20.401Z,5.80
2022-11-10T01:56:20.412Z,5.50
2022-11-10T01:57:20.427Z,4.80
2022-11-10T01:58:20.443Z,4.80
2022-11-10T01:59:20.456Z,5.50
2022-11-10T02:00:20.472Z,5.30
2022-11-10T02:01:20.633Z,5.50
2022-11-10T02:02:20.516Z,5.40
2022-11-10T02:03:20.894Z,5.50
2022-11-10T02:04:20.527Z,4.50
2022-11-10T02:05:20.542Z,4.80
2022-11-10T02:06:20.554Z,6.80
2022-11-10T02:07:20.568Z,5.50
2022-11-10T02:08:20.585Z,5.50
2022-11-10T02:09:20.600Z,5.30
2022-11-10T02:10:20.611Z,4.50
2022-11-10T02:11:20.627Z,4.60
2022-11-10T02:12:20.642Z,5.40
2022-11-10T02:13:20.912Z,6.20
2022-11-10T02:14:20.670Z,5.80
2022-11-10T02:15:20.685Z,6.50
2022-11-10T02:16:20.698Z,5.60
2022-11-10T02:17:20.716Z,4.70
2022-11-10T02:18:20.745Z,6.20
2022-11-10T02:19:20.741Z,5.00
2022-11-10T02:20:20.756Z,5.60
2022-11-10T02:21:20.770Z,6.60
2022-11-10T02:22:20.783Z,5.10
2022-11-10T02:23:21.108Z,5.30
2022-11-10T02:24:20.812Z,4.80
2022-11-10T02:25:20.833Z,4.80
2022-11-10T02:26:20.841Z,5.80
2022-11-10T02:27:20.856Z,5.60
2022-11-10T02:28:20.868Z,5.40
2022-11-10T02:29:20.882Z,5.40
2022-11-10T02:30:24.040Z,5.30
2022-11-10T02:31:20.911Z,5.50
2022-11-10T02:32:20.926Z,5.50
2022-11-10T02:33:21.347Z,5.30
2022-11-10T02:34:20.976Z,5.30
2022-11-10T02:35:20.975Z,5.90
2022-11-10T02:36:20.983Z,5.50
2022-11-10T02:37:20.998Z,6.90
2022-11-10T02:38:21.010Z,5.00
2022-11-10T02:39:21.024Z,6.20
2022-11-10T02:40:21.039Z,5.20
2022-11-10T02:41:21.061Z,5.10
2022-11-10T02:42:21.065Z,6.10
2022-11-10T02:43:21.597Z,4.90
2022-11-10T02:44:21.104Z,5.50
2022-11-10T02:45:21.108Z,5.90
2022-11-10T02:46:21.124Z,5.00
2022-11-10T02:47:21.141Z,5.70
2022-11-10T02:48:21.153Z,5.50
2022-11-10T02:49:21.167Z,5.40
2022-11-10T02:50:21.205Z,5.80
2022-11-10T02:51:21.193Z,5.00
2022-11-10T02:52:21.207Z,6.20
2022-11-10T02:53:21.629Z,5.80
2022-11-10T02:54:21.238Z,6.50
2022-11-10T02:55:21.253Z,5.60
2022-11-10T02:56:21.268Z,5.30
2022-11-10T02:57:21.281Z,5.40
2022-11-10T02:58:21.295Z,5.80
2022-11-10T02:59:21.309Z,5.40
2022-11-10T03:00:21.328Z,4.80
2022-11-10T03:01:21.373Z,5.50
2022-11-10T03:02:21.349Z,5.70
2022-11-10T03:03:21.776Z,4.70
2022-11-10T03:04:21.379Z,5.10
2022-11-10T03:05:21.396Z,5.50
2022-11-10T03:06:21.426Z,6.10
2022-11-10T03:07:21.421Z,4.70
2022-11-10T03:08:21.434Z,5.30
2022-11-10T03:09:21.450Z,4.30
2022-11-10T03:10:21.462Z,5.60
2022-11-10T03:11:21.478Z,6.10
2022-11-10T03:12:21.493Z,5.40
2022-11-10T03:13:21.910Z,5.60
2022-11-10T03:14:21.520Z,4.60
2022-11-10T03:15:21.537Z,5.10
2022-11-10T03:16:21.548Z,6.20
2022-11-10T03:17:21.562Z,5.20
2022-11-10T03:18:21.576Z,5.00
2022-11-10T03:19:21.590Z,4.40
2022-11-10T03:20:21.605Z,5.30
2022-11-10T03:21:21.619Z,4.50
2022-11-10T03:22:21.651Z,6.40
2022-11-10T03:23:22.029Z,4.80
2022-11-10T03:24:21.661Z,4.80
2022-11-10T03:25:21.675Z,5.50
2022-11-10T03:26:21.690Z,6.00
2022-11-10T03:27:21.703Z,5.50
2022-11-10T03:28:21.718Z,5.60
2022-11-10T03:29:21.732Z,5.00
2022-11-10T03:30:21.750Z,4.80
2022-11-10T03:31:21.760Z,5.20
2022-11-10T03:32:21.775Z,4.70
2022-11-10T03:33:22.144Z,4.50
2022-11-10T03:34:21.802Z,5.40
2022-11-10T03:35:21.820Z,5.90
2022-11-10T03:36:21.831Z,4.90
2022-11-10T03:37:21.844Z,5.50
2022-11-10T03:38:21.879Z,5.30
2022-11-10T03:39:21.874Z,5.00
2022-11-10T03:40:21.888Z,4.80
2022-11-10T03:41:21.902Z,4.70
2022-11-10T03:42:21.916Z,4.00
2022-11-10T03:43:22.425Z,6.30
2022-11-10T03:44:21.943Z,4.60
2022-11-10T03:45:21.959Z,4.60
2022-11-10T03:46:21.973Z,5.10
2022-11-10T03:47:21.986Z,4.60
2022-11-10T03:48:21.999Z,4.80
2022-11-10T03:49:22.012Z,4.20
2022-11-10T03:50:22.028Z,4.40
2022-11-10T03:51:22.043Z,4.40
2022-11-10T03:52:22.056Z,4.60
2022-11-10T03:53:22.467Z,5.30
2022-11-10T03:54:22.102Z,4.90
2022-11-10T03:55:22.099Z,4.40
2022-11-10T03:56:22.113Z,5.70
2022-11-10T03:57:22.125Z,4.80
2022-11-10T03:58:22.142Z,5.00
2022-11-10T03:59:22.153Z,4.80
2022-11-10T04:00:22.169Z,4.20
2022-11-10T04:01:22.247Z,4.40
2022-11-10T04:02:22.199Z,6.30
2022-11-10T04:03:22.432Z,4.50
2022-11-10T04:04:22.224Z,4.70
2022-11-10T04:05:22.239Z,4.60
2022-11-10T04:06:22.271Z,4.40
2022-11-10T04:07:22.266Z,4.10
2022-11-10T04:08:22.279Z,4.20
2022-11-10T04:09:22.294Z,4.90
2022-11-10T04:10:22.326Z,4.80
2022-11-10T04:11:22.322Z,4.60
2022-11-10T04:12:25.057Z,5.00
2022-11-10T04:13:22.661Z,4.20
2022-11-10T04:14:22.362Z,4.60
2022-11-10T04:15:22.377Z,3.40
2022-11-10T04:16:22.392Z,4.10
2022-11-10T04:17:22.405Z,4.20
2022-11-10T04:18:22.423Z,5.50
2022-11-10T04:19:22.431Z,4.90
2022-11-10T04:20:22.452Z,4.20
2022-11-10T04:21:22.463Z,6.10
2022-11-10T04:22:22.494Z,4.60
2022-11-10T04:23:22.879Z,3.90
2022-11-10T04:24:22.505Z,4.20
2022-11-10T04:25:22.520Z,4.30
2022-11-10T04:26:22.549Z,5.00
2022-11-10T04:27:22.544Z,4.00
2022-11-10T04:28:22.559Z,4.90
2022-11-10T04:29:22.574Z,4.10
2022-11-10T04:30:22.588Z,4.00
2022-11-10T04:31:22.601Z,4.10
2022-11-10T04:32:22.615Z,4.40
2022-11-10T04:33:23.103Z,4.10
2022-11-10T04:34:22.643Z,3.30
2022-11-10T04:35:22.656Z,3.50
2022-11-10T04:36:22.673Z,3.80
2022-11-10T04:37:22.684Z,4.10
2022-11-10T04:38:22.698Z,3.50
2022-11-10T04:39:22.713Z,4.50
2022-11-10T04:40:22.726Z,3.80
2022-11-10T04:41:22.742Z,5.30
2022-11-10T04:42:22.772Z,4.30
2022-11-10T04:43:23.132Z,4.10
2022-11-10T04:44:22.783Z,3.90
2022-11-10T04:45:22.798Z,5.50
2022-11-10T04:46:22.815Z,3.70
2022-11-10T04:47:22.825Z,4.80
2022-11-10T04:48:22.841Z,3.90
2022-11-10T04:49:22.853Z,3.70
2022-11-10T04:50:22.867Z,4.20
2022-11-10T04:51:22.904Z,4.00
2022-11-10T04:52:22.893Z,4.00
2022-11-10T04:53:23.407Z,4.10
2022-11-10T04:54:22.922Z,4.20
2022-11-10T04:55:22.936Z,4.10
2022-11-10T04:56:22.950Z,4.20
2022-11-10T04:57:22.965Z,3.90
2022-11-10T04:58:22.998Z,4.10
2022-11-10T04:59:22.993Z,3.60
2022-11-10T05:00:23.006Z,4.30
2022-11-10T05:01:23.136Z,3.40
2022-11-10T05:02:23.036Z,3.50
2022-11-10T05:03:23.421Z,4.10
2022-11-10T05:04:23.062Z,3.30
2022-11-10T05:05:23.077Z,4.10
2022-11-10T05:06:23.088Z,5.30
2022-11-10T05:07:23.106Z,3.70
2022-11-10T05:08:23.118Z,3.20
2022-11-10T05:09:23.135Z,3.80
2022-11-10T05:10:23.144Z,4.20
2022-11-10T05:11:23.160Z,3.50
2022-11-10T05:12:23.176Z,4.00
2022-11-10T05:13:23.579Z,3.70
2022-11-10T05:14:23.221Z,3.90
2022-11-10T05:15:23.217Z,3.50
2022-11-10T05:16:23.230Z,3.20
2022-11-10T05:17:23.448Z,4.00
2022-11-10T05:18:23.255Z,3.40
2022-11-10T05:19:23.270Z,4.30
2022-11-10T05:20:23.286Z,3.30
2022-11-10T05:21:23.297Z,3.70
2022-11-10T05:22:23.314Z,4.10
2022-11-10T05:23:23.659Z,4.40
2022-11-10T05:24:23.340Z,3.40
2022-11-10T05:25:23.353Z,3.50
2022-11-10T05:26:23.366Z,3.80
2022-11-10T05:27:23.380Z,3.40
2022-11-10T05:28:23.395Z,4.50
2022-11-10T05:29:23.409Z,3.10
2022-11-10T05:30:23.441Z,3.40
2022-11-10T05:31:23.438Z,3.40
2022-11-10T05:32:23.453Z,4.50
2022-11-10T05:33:24.033Z,3.70
2022-11-10T05:34:23.477Z,3.40
2022-11-10T05:35:23.494Z,3.60
2022-11-10T05:36:23.510Z,3.10
2022-11-10T05:37:23.521Z,3.10
2022-11-10T05:38:23.535Z,4.80
2022-11-10T05:39:23.547Z,3.40
2022-11-10T05:40:23.561Z,3.60
2022-11-10T05:41:23.578Z,3.60
2022-11-10T05:42:23.591Z,3.50
2022-11-10T05:43:24.062Z,4.50
2022-11-10T05:44:23.617Z,3.90
2022-11-10T05:45:23.631Z,4.00
2022-11-10T05:46:23.665Z,3.60
2022-11-10T05:47:23.659Z,2.90
2022-11-10T05:48:23.671Z,3.00
2022-11-10T05:49:23.687Z,3.60
2022-11-10T05:50:23.701Z,4.10
2022-11-10T05:51:23.713Z,3.90
2022-11-10T05:52:23.729Z,2.80
2022-11-10T05:53:24.267Z,3.50
2022-11-10T05:54:23.757Z,3.60
2022-11-10T05:55:23.771Z,3.80
2022-11-10T05:56:23.786Z,3.90
2022-11-10T05:57:23.801Z,3.30
2022-11-10T05:58:23.813Z,4.40
2022-11-10T05:59:23.825Z,4.50
2022-11-10T06:00:23.840Z,3.00
2022-11-10T06:01:23.852Z,3.00
2022-11-10T06:02:23.884Z,4.00
2022-11-10T06:03:24.347Z,4.00
2022-11-10T06:04:23.894Z,3.60
2022-11-10T06:05:29.701Z,3.20
2022-11-10T06:06:23.922Z,4.60
2022-11-10T06:07:23.939Z,3.20
2022-11-10T06:08:23.949Z,3.10
2022-11-10T06:09:23.964Z,3.40
2022-11-10T06:10:23.975Z,3.00
2022-11-10T06:11:23.991Z,4.60
2022-11-10T06:12:24.004Z,3.90
2022-11-10T06:13:24.327Z,3.30
2022-11-10T06:14:24.033Z,3.50
2022-11-10T06:15:24.046Z,3.90
2022-11-10T06:16:24.061Z,3.00
2022-11-10T06:17:24.083Z,2.80
2022-11-10T06:18:24.107Z,2.90
2022-11-10T06:19:24.103Z,3.60
2022-11-10T06:20:24.116Z,3.30
2022-11-10T06:21:24.130Z,3.80
2022-11-10T06:22:24.143Z,3.70
2022-11-10T06:23:24.660Z,3.50
2022-11-10T06:24:24.172Z,3.00
2022-11-10T06:25:24.186Z,3.40
2022-11-10T06:26:24.199Z,3.50
2022-11-10T06:27:24.211Z,3.80
2022-11-10T06:28:24.233Z,3.20
2022-11-10T06:29:26.901Z,2.90
2022-11-10T06:30:24.253Z,3.60
2022-11-10T06:31:24.269Z,4.30
2022-11-10T06:32:24.282Z,4.40
2022-11-10T06:33:24.527Z,3.10
2022-11-10T06:34:24.328Z,2.80
2022-11-10T06:35:24.325Z,3.50
2022-11-10T06:36:24.336Z,4.00
2022-11-10T06:37:24.352Z,3.60
2022-11-10T06:38:24.363Z,2.90
2022-11-10T06:39:24.379Z,3.20
2022-11-10T06:40:24.393Z,3.00
2022-11-10T06:41:25.519Z,3.40
2022-11-10T06:42:24.419Z,2.90
2022-11-10T06:43:24.760Z,2.80
2022-11-10T06:44:24.447Z,3.70
2022-11-10T06:45:24.465Z,2.80
2022-11-10T06:46:24.483Z,4.10
2022-11-10T06:47:24.489Z,3.10
2022-11-10T06:48:24.501Z,3.50
2022-11-10T06:49:24.516Z,3.10
2022-11-10T06:50:24.550Z,4.90
2022-11-10T06:51:24.545Z,2.60
2022-11-10T06:52:24.562Z,3.70
2022-11-10T06:53:27.136Z,3.90
2022-11-10T06:54:24.584Z,3.50
2022-11-10T06:55:24.598Z,3.10
2022-11-10T06:56:24.615Z,3.40
2022-11-10T06:57:24.629Z,2.70
2022-11-10T06:58:24.643Z,3.80
2022-11-10T06:59:24.655Z,3.00
2022-11-10T07:00:24.702Z,2.90
2022-11-10T07:01:24.732Z,3.50
2022-11-10T07:02:24.694Z,3.40
2022-11-10T07:03:25.179Z,3.20
2022-11-10T07:04:24.724Z,3.80
2022-11-10T07:05:24.738Z,3.00
2022-11-10T07:06:24.780Z,3.80
2022-11-10T07:07:24.766Z,3.50
2022-11-10T07:08:24.779Z,3.00
2022-11-10T07:09:24.793Z,3.00
2022-11-10T07:10:24.805Z,2.90
2022-11-10T07:11:24.822Z,4.10
2022-11-10T07:12:24.837Z,3.10
2022-11-10T07:13:25.171Z,3.40
2022-11-10T07:14:24.861Z,3.20
2022-11-10T07:15:24.876Z,3.80
2022-11-10T07:16:24.891Z,4.10
2022-11-10T07:17:24.904Z,2.90
2022-11-10T07:18:24.916Z,3.50
2022-11-10T07:19:24.932Z,3.40
2022-11-10T07:20:24.943Z,3.20
2022-11-10T07:21:24.959Z,3.80
2022-11-10T07:22:24.994Z,3.60
2022-11-10T07:23:25.267Z,3.20
2022-11-10T07:24:25.001Z,3.50
2022-11-10T07:25:25.017Z,3.90
2022-11-10T07:26:25.029Z,4.30
2022-11-10T07:27:25.043Z,3.20
2022-11-10T07:28:28.359Z,4.20
2022-11-10T07:29:25.070Z,3.90
2022-11-10T07:30:25.080Z,3.90
2022-11-10T07:31:25.097Z,4.10
2022-11-10T07:32:25.113Z,3.70
2022-11-10T07:33:25.349Z,3.40
2022-11-10T07:34:25.137Z,4.20
2022-11-10T07:35:25.150Z,4.00
2022-11-10T07:36:25.163Z,3.60
2022-11-10T07:37:25.181Z,3.40
2022-11-10T07:38:25.211Z,3.90
2022-11-10T07:39:25.207Z,4.10
2022-11-10T07:40:25.220Z,3.60
2022-11-10T07:41:25.236Z,3.20
2022-11-10T07:42:25.247Z,3.70
2022-11-10T07:43:25.653Z,3.20
2022-11-10T07:44:25.276Z,3.30
2022-11-10T07:45:25.291Z,4.10
2022-11-10T07:46:25.301Z,4.50
2022-11-10T07:47:25.319Z,3.30
2022-11-10T07:48:25.333Z,3.20
2022-11-10T07:49:25.347Z,4.60
2022-11-10T07:50:25.358Z,3.60
2022-11-10T07:51:25.371Z,3.70
2022-11-10T07:52:25.385Z,3.60
2022-11-10T07:53:25.839Z,3.60
2022-11-10T07:54:25.435Z,3.50
2022-11-10T07:55:25.429Z,4.00
2022-11-10T07:56:25.446Z,3.10
2022-11-10T07:57:25.455Z,3.20
2022-11-10T07:58:25.469Z,3.20
2022-11-10T07:59:25.482Z,3.70
2022-11-10T08:00:25.508Z,4.10
2022-11-10T08:01:25.583Z,3.60
2022-11-10T08:02:25.523Z,3.80
2022-11-10T08:03:25.892Z,3.60
2022-11-10T08:04:25.550Z,3.60
2022-11-10T08:05:25.566Z,3.90
2022-11-10T08:06:25.652Z,2.90
2022-11-10T08:07:25.767Z,4.20
2022-11-10T08:08:25.606Z,3.60
2022-11-10T08:09:25.621Z,3.60
2022-11-10T08:10:25.650Z,4.00
2022-11-10T08:11:25.646Z,3.70
2022-11-10T08:12:29.783Z,3.40
2022-11-10T08:13:25.674Z,4.00
2022-11-10T08:14:25.689Z,3.50
2022-11-10T08:15:25.703Z,3.40
2022-11-10T08:16:25.715Z,4.70
2022-11-10T08:17:25.729Z,3.20
2022-11-10T08:18:28.609Z,3.90
2022-11-10T08:19:25.759Z,3.60
2022-11-10T08:20:25.816Z,4.80
2022-11-10T08:21:25.786Z,3.60
2022-11-10T08:22:25.798Z,3.20
2022-11-10T08:23:25.879Z,4.30
2022-11-10T08:24:25.826Z,3.50
2022-11-10T08:25:29.117Z,3.30
2022-11-10T08:26:25.874Z,2.90
2022-11-10T08:27:25.865Z,5.70
2022-11-10T08:28:25.880Z,3.40
2022-11-10T08:29:25.893Z,4.00
2022-11-10T08:30:26.010Z,3.40
2022-11-10T08:31:25.926Z,4.80
2022-11-10T08:32:25.937Z,4.00
2022-11-10T08:33:26.251Z,3.30
2022-11-10T08:34:25.962Z,3.50
2022-11-10T08:35:25.976Z,3.90
2022-11-10T08:36:25.990Z,4.40
2022-11-10T08:37:26.005Z,3.30
2022-11-10T08:38:26.017Z,3.20
2022-11-10T08:39:38.649Z,3.40
2022-11-10T08:40:26.043Z,4.90
2022-11-10T08:41:26.059Z,3.70
2022-11-10T08:42:26.102Z,3.20
2022-11-10T08:43:26.329Z,3.10
2022-11-10T08:44:26.104Z,3.60
2022-11-10T08:45:26.112Z,4.40
2022-11-10T08:46:26.127Z,3.90
2022-11-10T08:47:26.146Z,4.60
2022-11-10T08:48:26.158Z,3.80
2022-11-10T08:49:26.168Z,3.60
2022-11-10T08:50:26.180Z,4.00
2022-11-10T08:51:26.194Z,3.20
2022-11-10T08:52:26.211Z,4.10
2022-11-10T08:53:26.468Z,3.20
2022-11-10T08:54:26.238Z,3.10
2022-11-10T08:55:26.249Z,3.80
2022-11-10T08:56:26.267Z,4.00
2022-11-10T08:57:26.288Z,4.80
2022-11-10T08:58:26.400Z,3.60
2022-11-10T08:59:26.306Z,3.80
2022-11-10T09:00:26.320Z,4.00
2022-11-10T09:01:26.334Z,3.40
2022-11-10T09:02:26.346Z,3.70
2022-11-10T09:03:26.933Z,3.90
2022-11-10T09:04:26.460Z,3.60
2022-11-10T09:05:26.387Z,4.60
2022-11-10T09:06:26.402Z,4.60
2022-11-10T09:07:26.415Z,3.90
2022-11-10T09:08:26.443Z,5.40
2022-11-10T09:09:26.444Z,3.40
2022-11-10T09:10:26.459Z,3.60
2022-11-10T09:11:26.479Z,6.50
2022-11-10T09:12:26.484Z,3.70
2022-11-10T09:13:30.271Z,3.20
2022-11-10T09:14:26.530Z,4.10
2022-11-10T09:15:26.530Z,3.40
2022-11-10T09:16:26.539Z,3.60
2022-11-10T09:17:26.554Z,3.40
2022-11-10T09:18:26.568Z,4.30
2022-11-10T09:19:26.648Z,3.00
2022-11-10T09:20:26.597Z,3.40
2022-11-10T09:21:26.606Z,3.40
2022-11-10T09:22:26.620Z,4.00
2022-11-10T09:23:26.633Z,3.60
2022-11-10T09:24:31.156Z,3.60
2022-11-10T09:25:26.669Z,3.40
2022-11-10T09:26:26.674Z,4.30
2022-11-10T09:27:26.690Z,3.70
2022-11-10T09:28:26.712Z,4.60
2022-11-10T09:29:26.717Z,3.00
2022-11-10T09:30:26.750Z,3.60
2022-11-10T09:31:26.746Z,4.00
2022-11-10T09:32:26.760Z,3.70
2022-11-10T09:33:26.975Z,3.90
2022-11-10T09:34:26.784Z,3.30
2022-11-10T09:35:26.799Z,3.60
2022-11-10T09:36:26.814Z,3.70
2022-11-10T09:37:26.826Z,3.50
2022-11-10T09:38:26.845Z,3.60
2022-11-10T09:39:26.858Z,3.80
2022-11-10T09:40:26.957Z,3.30
2022-11-10T09:41:26.881Z,4.00
2022-11-10T09:42:26.893Z,3.30
2022-11-10T09:43:26.909Z,3.40
2022-11-10T09:44:26.921Z,4.10
2022-11-10T09:45:26.938Z,4.30
2022-11-10T09:46:26.968Z,3.10
2022-11-10T09:47:55.842Z,4.00
2022-11-10T09:48:26.976Z,3.60
2022-11-10T09:49:26.994Z,3.40
2022-11-10T09:50:27.058Z,3.30
2022-11-10T09:51:27.017Z,3.90
2022-11-10T09:52:27.034Z,3.50
2022-11-10T09:53:27.044Z,5.10
2022-11-10T09:54:27.062Z,3.50
2022-11-10T09:55:27.071Z,3.90
2022-11-10T09:56:27.086Z,3.10
2022-11-10T09:57:27.100Z,4.20
2022-11-10T09:58:27.114Z,3.20
2022-11-10T09:59:27.128Z,3.90
2022-11-10T10:00:27.142Z,3.40
2022-11-10T10:01:27.243Z,4.20
2022-11-10T10:02:27.210Z,3.80
2022-11-10T10:03:27.181Z,3.90
2022-11-10T10:04:27.198Z,3.60
2022-11-10T10:05:27.208Z,3.00
2022-11-10T10:06:33.961Z,3.20
2022-11-10T10:07:27.365Z,4.60
2022-11-10T10:08:27.253Z,3.10
2022-11-10T10:09:27.263Z,3.40
2022-11-10T10:10:27.276Z,3.70
2022-11-10T10:11:27.290Z,3.60
2022-11-10T10:12:27.304Z,3.90
2022-11-10T10:13:27.319Z,3.30
2022-11-10T10:14:27.533Z,3.60
2022-11-10T10:15:27.344Z,3.20
2022-11-10T10:16:27.360Z,3.10
2022-11-10T10:17:27.387Z,3.40
2022-11-10T10:18:27.408Z,3.50
2022-11-10T10:19:27.400Z,3.00
2022-11-10T10:20:27.419Z,4.80
2022-11-10T10:21:27.436Z,3.20
2022-11-10T10:22:27.441Z,4.20
2022-11-10T10:23:53.893Z,4.30
2022-11-10T10:24:27.467Z,3.10
2022-11-10T10:25:27.491Z,3.60
2022-11-10T10:26:27.495Z,3.30
2022-11-10T10:27:27.510Z,3.00
2022-11-10T10:28:27.562Z,3.70
2022-11-10T10:29:27.540Z,3.10
2022-11-10T10:30:27.548Z,3.10
2022-11-10T10:31:27.565Z,3.20
2022-11-10T10:32:27.577Z,3.40
2022-11-10T10:33:27.593Z,3.60
2022-11-10T10:34:27.627Z,3.80
2022-11-10T10:35:27.620Z,3.50
2022-11-10T10:36:27.632Z,3.20
2022-11-10T10:37:27.648Z,3.80
2022-11-10T10:38:27.660Z,4.20
2022-11-10T10:39:27.678Z,3.30
2022-11-10T10:40:27.692Z,3.80
2022-11-10T10:41:27.701Z,4.20
2022-11-10T10:42:27.721Z,3.90
2022-11-10T10:43:27.728Z,2.80
2022-11-10T10:44:27.745Z,3.80
2022-11-10T10:45:27.797Z,5.30
2022-11-10T10:46:31.485Z,3.90
2022-11-10T10:47:27.785Z,3.20
2022-11-10T10:48:27.796Z,3.10
2022-11-10T10:49:29.779Z,2.80
2022-11-10T10:50:27.841Z,3.00
2022-11-10T10:51:27.838Z,4.40
2022-11-10T10:52:27.853Z,3.60
2022-11-10T10:53:27.882Z,3.90
2022-11-10T10:54:27.878Z,3.20
2022-11-10T10:55:27.892Z,3.40
2022-11-10T10:56:27.907Z,3.00
2022-11-10T10:57:27.921Z,3.20
2022-11-10T10:58:27.934Z,3.70
2022-11-10T10:59:27.947Z,3.10
2022-11-10T11:00:27.962Z,3.30
2022-11-10T11:01:28.049Z,3.10
2022-11-10T11:02:27.987Z,3.30
2022-11-10T11:03:28.003Z,3.40
2022-11-10T11:04:28.016Z,3.20
2022-11-10T11:05:28.028Z,2.80
2022-11-10T11:06:28.064Z,3.70
2022-11-10T11:07:28.057Z,3.60
2022-11-10T11:08:28.068Z,2.90
2022-11-10T11:09:28.081Z,3.30
2022-11-10T11:10:28.103Z,3.10
2022-11-10T11:11:28.111Z,3.40
2022-11-10T11:12:28.127Z,3.60
2022-11-10T11:13:28.142Z,3.50
2022-11-10T11:14:28.155Z,3.30
2022-11-10T11:15:28.163Z,3.00
2022-11-10T11:16:28.179Z,3.30
2022-11-10T11:17:28.219Z,3.10
2022-11-10T11:18:28.204Z,3.00
2022-11-10T11:19:28.220Z,3.20
2022-11-10T11:20:28.233Z,2.70
2022-11-10T11:21:28.248Z,3.00
2022-11-10T11:22:28.280Z,4.00
2022-11-10T11:23:28.278Z,4.20
2022-11-10T11:24:28.288Z,3.60
2022-11-10T11:25:28.303Z,3.60
2022-11-10T11:26:28.313Z,3.20
2022-11-10T11:27:28.326Z,2.70
2022-11-10T11:28:28.346Z,3.20
2022-11-10T11:29:28.357Z,3.00
2022-11-10T11:30:28.370Z,3.30
2022-11-10T11:31:28.384Z,3.20
2022-11-10T11:32:28.396Z,3.90
2022-11-10T11:33:28.411Z,3.10
2022-11-10T11:34:28.425Z,3.00
2022-11-10T11:35:28.438Z,3.20
2022-11-10T11:36:28.450Z,3.80
2022-11-10T11:37:28.469Z,3.80
2022-11-10T11:38:28.497Z,3.30
2022-11-10T11:39:28.492Z,3.00
2022-11-10T11:40:28.506Z,2.70
2022-11-10T11:41:28.925Z,3.00
2022-11-10T11:42:28.533Z,3.10
2022-11-10T11:43:28.545Z,4.60
2022-11-10T11:44:28.559Z,3.20
2022-11-10T11:45:28.574Z,2.90
2022-11-10T11:46:28.586Z,3.90
2022-11-10T11:47:28.606Z,3.10
2022-11-10T11:48:28.614Z,2.90
2022-11-10T11:49:28.628Z,3.10
2022-11-10T11:50:28.641Z,2.70
2022-11-10T11:51:28.654Z,3.70
2022-11-10T11:52:28.672Z,2.70
2022-11-10T11:53:28.683Z,2.80
2022-11-10T11:54:28.717Z,2.70
2022-11-10T11:55:28.709Z,3.10
2022-11-10T11:56:28.731Z,3.90
2022-11-10T11:57:28.739Z,3.20
2022-11-10T11:58:28.766Z,3.20
2022-11-10T11:59:28.765Z,3.50
2022-11-10T12:00:28.780Z,3.80
2022-11-10T12:01:28.792Z,3.40
2022-11-10T12:02:28.919Z,3.40
2022-11-10T12:03:28.820Z,2.80
2022-11-10T12:04:28.832Z,3.70
2022-11-10T12:05:28.856Z,3.00
2022-11-10T12:06:28.859Z,4.20
2022-11-10T12:07:28.874Z,3.40
2022-11-10T12:08:28.888Z,2.80
2022-11-10T12:09:28.902Z,2.90
2022-11-10T12:10:28.935Z,3.00
2022-11-10T12:11:28.929Z,3.70
2022-11-10T12:12:28.943Z,3.40
2022-11-10T12:13:28.956Z,3.00
2022-11-10T12:14:28.970Z,2.90
2022-11-10T12:15:28.985Z,2.80
2022-11-10T12:16:28.996Z,3.20
2022-11-10T12:17:29.011Z,3.50
2022-11-10T12:18:29.022Z,2.90
2022-11-10T12:19:29.037Z,2.80
2022-11-10T12:20:29.051Z,3.00
2022-11-10T12:21:29.066Z,2.40
2022-11-10T12:22:29.077Z,2.90
2022-11-10T12:23:29.093Z,3.40
2022-11-10T12:24:29.107Z,3.30
2022-11-10T12:25:29.121Z,3.00
2022-11-10T12:26:29.152Z,2.80
2022-11-10T12:27:29.147Z,3.20
2022-11-10T12:28:29.161Z,3.40
2022-11-10T12:29:29.177Z,3.30
2022-11-10T12:30:29.189Z,2.90
2022-11-10T12:31:29.223Z,2.90
2022-11-10T12:32:29.215Z,3.30
2022-11-10T12:33:29.229Z,2.90
2022-11-10T12:34:29.245Z,3.20
2022-11-10T12:35:29.260Z,3.40
2022-11-10T12:36:29.271Z,3.70
2022-11-10T12:37:29.290Z,4.40
2022-11-10T12:38:29.297Z,3.00
2022-11-10T12:39:29.315Z,4.10
2022-11-10T12:40:29.326Z,3.00
2022-11-10T12:41:29.341Z,3.30
2022-11-10T12:42:29.368Z,2.70
2022-11-10T12:43:29.374Z,3.00
2022-11-10T12:44:29.380Z,3.40
2022-11-10T12:45:29.395Z,3.00
2022-11-10T12:46:29.408Z,3.80
2022-11-10T12:47:29.422Z,3.10
2022-11-10T12:48:29.436Z,3.10
2022-11-10T12:49:29.451Z,2.70
2022-11-10T12:50:29.465Z,3.40
2022-11-10T12:51:29.476Z,3.80
2022-11-10T12:52:29.491Z,2.80
2022-11-10T12:53:29.508Z,3.00
2022-11-10T12:54:29.519Z,2.80
2022-11-10T12:55:29.530Z,3.10
2022-11-10T12:56:29.545Z,3.00
2022-11-10T12:57:29.558Z,3.10
2022-11-10T12:58:29.596Z,4.30
2022-11-10T12:59:29.587Z,3.80
2022-11-10T13:00:29.739Z,3.10
2022-11-10T13:01:29.664Z,3.20
2022-11-10T13:02:29.629Z,3.30
2022-11-10T13:03:29.643Z,2.90
2022-11-10T13:04:29.657Z,2.80
2022-11-10T13:05:29.670Z,2.80
2022-11-10T13:06:29.684Z,2.90
2022-11-10T13:07:29.697Z,3.30
2022-11-10T13:08:29.710Z,2.60
2022-11-10T13:09:29.726Z,3.70
2022-11-10T13:10:29.738Z,4.30
2022-11-10T13:11:29.753Z,2.80
2022-11-10T13:12:29.766Z,3.00
2022-11-10T13:13:29.784Z,2.50
2022-11-10T13:14:29.812Z,4.00
2022-11-10T13:15:29.807Z,3.30
2022-11-10T13:16:29.821Z,2.90
2022-11-10T13:17:29.834Z,3.30
2022-11-10T13:18:29.846Z,3.10